No particular awareness of the weather is required.    There are no Weather-warnings


Meteo18 Weather Cam more information Meteo18 Weather Cam


Thunder radar more information blitzortung!


Rain radar more information rain snow radar


Visit our other weather sites:

Template documentation
and downloads

And another site



Weather Underground History page Text

Daily Summary for July 10, 2017 Units:  English    Metric   Both
« Previous Day
Next Day »
Daily Weekly Monthly Yearly Custom
  High: Low: Average:
Temperature: TemperatureC °F 16.8 °F 19.1 °F
Dew Point: DewpointC °F 15.7 °F 17 °F
Humidity: Humidity % 66 % 87 %
Wind Speed: WindSpeedKMH mph 0.0 mph 7.7 mph
Wind Gust: WindSpeedGustKMH mph - -
Wind:- - WSW
Pressure: PressurehPa in 1011.7 in -
Precipitation: 1.0 in    
Historical Graphs
 
 
Tabular Data for July 10, 2017
Time Temperature Dew Point Pressure Wind Wind Speed Wind Gust Humidity Rainfall Rate (Hourly)
TemperatureC °F DewpointC °F PressurehPa in Calm     Humidity % HourlyPrecipMM in
00:02 18.5 °F 17.8 °F 1012.4 in Calm   1.6 mph 96 % 0.0 in
00:07 18.4 °F 17.8 °F 1012.1 in SE 1.6 mph   96 % 0.0 in
00:12 18.4 °F 17.8 °F 1011.7 in Calm   3.2 mph 96 % 0.0 in
00:17 18.4 °F 17.8 °F 1011.7 in Calm   3.2 mph 96 % 0.0 in
00:22 18.4 °F 17.8 °F 1012.1 in Calm   3.2 mph 96 % 0.0 in
00:27 18.5 °F 17.8 °F 1012.1 in Calm   1.6 mph 96 % 0.0 in
00:32 18.5 °F 17.8 °F 1012.4 in SW 1.6 mph 1.6 mph 96 % 0.0 in
00:42 18.6 °F 17.9 °F 1012.1 in South 1.6 mph 3.2 mph 96 % 0.0 in
00:47 18.6 °F 17.9 °F 1012.1 in Calm   4.8 mph 96 % 0.0 in
00:57 18.6 °F 18.1 °F 1012.4 in SW 3.2 mph 3.2 mph 97 % 0.0 in
01:02 18.6 °F 17.9 °F 1012.4 in SW 8.0 mph 8.0 mph 96 % 0.0 in
01:07 18.5 °F 17.8 °F 1012.4 in SW 4.8 mph 9.7 mph 96 % 0.0 in
01:12 18.4 °F 17.8 °F 1012.4 in SSW 4.8 mph 11.3 mph 96 % 0.0 in
01:17 18.4 °F 17.8 °F 1012.4 in SW 6.4 mph 12.9 mph 96 % 0.0 in
01:22 18.3 °F 17.7 °F 1012.4 in WSW 6.4 mph 12.9 mph 96 % 0.0 in
01:27 18.3 °F 17.7 °F 1012.4 in WSW 4.8 mph 12.9 mph 96 % 0.0 in
01:32 18.3 °F 17.7 °F 1012.4 in West 3.2 mph 11.3 mph 96 % 0.0 in
01:37 18.3 °F 17.7 °F 1012.4 in WSW 3.2 mph 11.3 mph 96 % 0.0 in
01:42 18.3 °F 17.7 °F 1012.4 in WSW 6.4 mph 9.7 mph 96 % 0.0 in
01:47 18.3 °F 17.7 °F 1012.1 in West 4.8 mph 9.7 mph 96 % 0.0 in
01:52 18.3 °F 17.7 °F 1012.1 in WSW 4.8 mph 9.7 mph 96 % 0.0 in
01:57 18.3 °F 17.7 °F 1012.1 in WNW 9.7 mph 11.3 mph 96 % 0.0 in
02:02 18.3 °F 17.7 °F 1012.1 in West 3.2 mph 12.9 mph 96 % 0.0 in
02:07 18.4 °F 17.8 °F 1012.1 in West 4.8 mph 12.9 mph 96 % 0.0 in
02:12 18.4 °F 17.8 °F 1012.1 in West 4.8 mph 12.9 mph 96 % 0.0 in
02:17 18.4 °F 17.8 °F 1012.1 in WSW 4.8 mph 12.9 mph 96 % 0.0 in
02:22 18.4 °F 17.8 °F 1012.1 in WSW 6.4 mph 9.7 mph 96 % 0.0 in
02:27 18.3 °F 17.7 °F 1012.1 in WSW 4.8 mph 9.7 mph 96 % 0.0 in
02:32 18.3 °F 17.7 °F 1012.1 in WSW 6.4 mph 8.0 mph 96 % 0.0 in
02:42 18.3 °F 17.7 °F 1012.1 in West 3.2 mph 9.7 mph 96 % 0.0 in
02:47 18.3 °F 17.7 °F 1012.1 in WSW 12.9 mph 12.9 mph 96 % 0.0 in
02:52 18.3 °F 17.7 °F 1012.1 in WSW 3.2 mph 12.9 mph 96 % 0.0 in
02:57 18.3 °F 17.7 °F 1012.1 in WSW 1.6 mph 12.9 mph 96 % 0.0 in
03:02 18.3 °F 17.7 °F 1011.7 in West 3.2 mph 12.9 mph 96 % 0.0 in
03:07 18.3 °F 17.7 °F 1011.7 in SW 3.2 mph 8.0 mph 96 % 0.0 in
03:12 18.3 °F 17.7 °F 1011.7 in SW 6.4 mph 11.3 mph 96 % 0.0 in
03:17 18.3 °F 17.7 °F 1011.7 in SSW 3.2 mph 11.3 mph 96 % 0.0 in
03:22 18.3 °F 17.7 °F 1011.7 in SW 1.6 mph 11.3 mph 96 % 0.0 in
03:27 18.3 °F 17.7 °F 1011.7 in SW 4.8 mph 6.4 mph 96 % 0.0 in
03:32 18.3 °F 17.7 °F 1011.7 in WSW 3.2 mph 8.0 mph 96 % 0.0 in
03:37 18.3 °F 17.7 °F 1011.7 in WSW 4.8 mph 8.0 mph 96 % 0.0 in
03:42 18.3 °F 17.8 °F 1011.7 in South 4.8 mph 8.0 mph 97 % 0.0 in
03:47 18.4 °F 17.9 °F 1012.1 in SW 8.0 mph 14.5 mph 97 % 0.0 in
03:52 18.3 °F 17.7 °F 1012.1 in WSW 9.7 mph 19.3 mph 96 % 0.0 in
03:57 18.3 °F 17.7 °F 1012.1 in SW 11.3 mph 19.3 mph 96 % 0.0 in
04:02 18.2 °F 17.6 °F 1012.4 in West 12.9 mph 19.3 mph 96 % 0.0 in
04:12 18.0 °F 17.4 °F 1012.4 in West 16.1 mph 24.1 mph 96 % 0.0 in
04:17 17.9 °F 17.3 °F 1012.4 in WSW 9.7 mph 22.5 mph 96 % 0.0 in
04:22 17.9 °F 17.1 °F 1012.4 in WNW 6.4 mph 22.5 mph 95 % 0.0 in
04:27 17.9 °F 17.1 °F 1012.4 in West 12.9 mph 22.5 mph 95 % 0.0 in
04:37 17.9 °F 17.1 °F 1012.1 in SW 9.7 mph 19.3 mph 95 % 0.0 in
04:42 17.8 °F 16.8 °F 1012.1 in WSW 4.8 mph 22.5 mph 94 % 0.0 in
04:47 17.8 °F 16.8 °F 1012.1 in West 8.0 mph 22.5 mph 94 % 0.0 in
04:52 17.7 °F 16.7 °F 1012.1 in WSW 6.4 mph 22.5 mph 94 % 0.0 in
04:57 17.8 °F 17.0 °F 1012.1 in West 14.5 mph 20.9 mph 95 % 0.0 in
05:02 17.8 °F 16.8 °F 1012.1 in West 8.0 mph 20.9 mph 94 % 0.0 in
05:07 17.8 °F 17.0 °F 1012.1 in West 16.1 mph 22.5 mph 95 % 0.0 in
05:12 17.8 °F 17.0 °F 1012.4 in West 8.0 mph 25.7 mph 95 % 0.0 in
05:17 17.8 °F 17.0 °F 1012.4 in WSW 16.1 mph 25.7 mph 95 % 0.0 in
05:22 17.8 °F 17.0 °F 1012.8 in SW 9.7 mph 25.7 mph 95 % 0.0 in
05:32 17.8 °F 17.0 °F 1012.8 in West 8.0 mph 24.1 mph 95 % 0.0 in
05:42 17.8 °F 17.2 °F 1012.8 in SSW 9.7 mph 20.9 mph 96 % 0.0 in
05:47 17.9 °F 17.3 °F 1012.8 in SW 8.0 mph 20.9 mph 96 % 0.0 in
05:52 17.9 °F 17.3 °F 1012.8 in WSW 17.7 mph 20.9 mph 96 % 0.0 in
05:57 17.9 °F 17.3 °F 1012.8 in West 6.4 mph 22.5 mph 96 % 0.0 in
06:02 18.0 °F 17.5 °F 1012.8 in West 11.3 mph 22.5 mph 97 % 0.0 in
06:12 18.1 °F 17.6 °F 1012.8 in West 14.5 mph 24.1 mph 97 % 0.0 in
06:17 18.1 °F 17.6 °F 1012.8 in West 9.7 mph 24.1 mph 97 % 0.0 in
06:22 18.2 °F 17.6 °F 1012.8 in NW 12.9 mph 24.1 mph 96 % 0.0 in
06:32 18.2 °F 17.4 °F 1012.8 in West 8.0 mph 22.5 mph 95 % 0.3 in
06:37 18.2 °F 17.2 °F 1012.8 in West 6.4 mph 22.5 mph 94 % 0.3 in
06:42 18.2 °F 17.0 °F 1012.8 in West 8.0 mph 22.5 mph 93 % 0.3 in
06:47 18.1 °F 16.8 °F 1012.4 in WNW 3.2 mph 20.9 mph 92 % 0.3 in
06:52 18.0 °F 16.7 °F 1012.4 in WNW 11.3 mph 20.9 mph 92 % 0.3 in
07:02 17.7 °F 16.2 °F 1012.1 in North 8.0 mph 16.1 mph 91 % 0.3 in
07:12 17.5 °F 16.2 °F 1012.1 in WNW 4.8 mph 22.5 mph 92 % 0.3 in
07:17 17.4 °F 16.1 °F 1012.1 in WNW 4.8 mph 12.9 mph 92 % 0.3 in
07:22 17.4 °F 16.1 °F 1012.1 in West 3.2 mph 12.9 mph 92 % 0.3 in
07:32 17.4 °F 15.9 °F 1012.1 in WNW 4.8 mph 12.9 mph 91 % 0.0 in
07:37 17.4 °F 15.9 °F 1012.4 in Calm   11.3 mph 91 % 0.0 in
07:42 17.5 °F 16.0 °F 1012.4 in West 4.8 mph 8.0 mph 91 % 0.0 in
07:47 17.5 °F 16.0 °F 1012.4 in Calm   6.4 mph 91 % 0.0 in
07:52 17.5 °F 16.0 °F 1012.4 in Calm   6.4 mph 91 % 0.0 in
08:02 17.5 °F 16.2 °F 1012.8 in SSW 3.2 mph 4.8 mph 92 % 0.0 in
08:12 17.6 °F 16.3 °F 1012.8 in SSE 4.8 mph 9.7 mph 92 % 0.0 in
08:17 17.7 °F 16.6 °F 1012.8 in SSW 6.4 mph 11.3 mph 93 % 0.0 in
08:22 17.8 °F 16.5 °F 1013.1 in SW 11.3 mph 11.3 mph 92 % 0.0 in
08:27 17.9 °F 16.8 °F 1013.1 in SW 8.0 mph 19.3 mph 93 % 0.0 in
08:32 17.9 °F 16.6 °F 1013.1 in SSW 11.3 mph 19.3 mph 92 % 0.0 in
08:42 17.8 °F 16.7 °F 1013.1 in WSW 9.7 mph 19.3 mph 93 % 0.0 in
08:52 17.6 °F 16.5 °F 1013.4 in SSW 16.1 mph 19.3 mph 93 % 0.0 in
08:57 17.6 °F 16.5 °F 1013.4 in SW 9.7 mph 20.9 mph 93 % 0.0 in
09:02 17.6 °F 16.3 °F 1013.4 in SW 8.0 mph 20.9 mph 92 % 0.0 in
09:07 17.7 °F 16.4 °F 1013.4 in WSW 4.8 mph 22.5 mph 92 % 0.0 in
09:12 17.8 °F 16.5 °F 1013.4 in WSW 6.4 mph 22.5 mph 92 % 0.0 in
09:17 17.9 °F 16.4 °F 1013.4 in West 8.0 mph 22.5 mph 91 % 0.0 in
09:22 18.1 °F 16.6 °F 1013.4 in West 4.8 mph 22.5 mph 91 % 0.0 in
09:27 18.3 °F 16.8 °F 1013.4 in WSW 9.7 mph 22.5 mph 91 % 0.0 in
09:32 18.3 °F 16.8 °F 1013.4 in WSW 1.6 mph 22.5 mph 91 % 0.0 in
09:37 18.7 °F 17.0 °F 1013.4 in SSW 4.8 mph 17.7 mph 90 % 0.0 in
09:42 19.0 °F 17.1 °F 1013.4 in South 12.9 mph 17.7 mph 89 % 0.0 in
09:47 19.2 °F 17.0 °F 1013.4 in WSW 6.4 mph 17.7 mph 87 % 0.0 in
09:52 19.3 °F 17.3 °F 1013.4 in WSW 6.4 mph 17.7 mph 88 % 0.0 in
09:57 19.3 °F 17.1 °F 1013.4 in SW 19.3 mph 24.1 mph 87 % 0.0 in
10:02 19.3 °F 17.1 °F 1013.8 in WSW 4.8 mph 24.1 mph 87 % 0.0 in
10:12 19.4 °F 17.2 °F 1013.4 in West 3.2 mph 24.1 mph 87 % 0.0 in
10:17 19.4 °F 17.2 °F 1013.4 in WSW 4.8 mph 20.9 mph 87 % 0.0 in
10:22 19.3 °F 17.1 °F 1013.8 in SW 3.2 mph 20.9 mph 87 % 0.0 in
10:32 19.2 °F 17.0 °F 1013.8 in WSW 11.3 mph 17.7 mph 87 % 0.0 in
10:37 19.3 °F 16.9 °F 1013.8 in SW 4.8 mph 17.7 mph 86 % 0.0 in
10:42 19.3 °F 16.9 °F 1013.8 in WSW 6.4 mph 17.7 mph 86 % 0.0 in
10:47 19.6 °F 17.2 °F 1013.8 in WSW 6.4 mph 17.7 mph 86 % 0.0 in
10:52 19.8 °F 17.2 °F 1013.8 in SSW 4.8 mph 17.7 mph 85 % 0.0 in
10:57 19.6 °F 16.8 °F 1013.8 in West 9.7 mph 24.1 mph 84 % 0.0 in
11:02 19.6 °F 17.2 °F 1013.8 in WSW 4.8 mph 24.1 mph 86 % 0.0 in
11:07 19.6 °F 17.2 °F 1013.8 in SW 4.8 mph 24.1 mph 86 % 0.0 in
11:12 19.7 °F 17.3 °F 1013.4 in West 3.2 mph 24.1 mph 86 % 0.0 in
11:17 19.8 °F 17.2 °F 1013.4 in SSW 6.4 mph 16.1 mph 85 % 0.0 in
11:22 20.1 °F 17.5 °F 1013.4 in SW 11.3 mph 16.1 mph 85 % 0.0 in
11:27 20.2 °F 17.6 °F 1013.8 in West 8.0 mph 22.5 mph 85 % 0.0 in
11:32 20.2 °F 17.4 °F 1013.8 in West 8.0 mph 22.5 mph 84 % 0.0 in
11:37 20.4 °F 17.8 °F 1013.4 in SW 9.7 mph 24.1 mph 85 % 0.0 in
11:42 20.7 °F 18.1 °F 1013.4 in SW 11.3 mph 24.1 mph 85 % 0.0 in
11:52 20.7 °F 17.7 °F 1013.8 in South 11.3 mph 30.6 mph 83 % 0.0 in
11:57 20.7 °F 17.7 °F 1013.8 in SW 17.7 mph 30.6 mph 83 % 0.0 in
12:02 20.7 °F 17.7 °F 1013.8 in WSW 14.5 mph 22.5 mph 83 % 0.0 in
12:07 20.7 °F 17.5 °F 1013.8 in SW 17.7 mph 25.7 mph 82 % 0.0 in
12:12 20.7 °F 17.5 °F 1013.8 in SSW 14.5 mph 25.7 mph 82 % 0.0 in
12:17 20.7 °F 17.3 °F 1013.8 in WSW 20.9 mph 24.1 mph 81 % 0.0 in
12:22 20.8 °F 17.6 °F 1013.8 in SW 4.8 mph 24.1 mph 82 % 0.0 in
12:32 20.8 °F 17.0 °F 1014.1 in SW 16.1 mph 27.4 mph 79 % 0.0 in
12:42 20.7 °F 16.9 °F 1014.1 in WSW 11.3 mph 25.7 mph 79 % 0.0 in
12:47 21.0 °F 17.6 °F 1013.8 in SW 11.3 mph 20.9 mph 81 % 0.0 in
12:52 21.5 °F 17.1 °F 1013.8 in West 6.4 mph 19.3 mph 76 % 0.0 in
12:57 21.4 °F 17.2 °F 1013.8 in SW 8.0 mph 22.5 mph 77 % 0.0 in
13:02 21.3 °F 16.9 °F 1013.8 in WSW 14.5 mph 22.5 mph 76 % 0.0 in
13:07 21.4 °F 17.0 °F 1013.8 in SW 17.7 mph 20.9 mph 76 % 0.0 in
13:12 21.6 °F 17.4 °F 1013.8 in SSW 11.3 mph 22.5 mph 77 % 0.0 in
13:17 21.6 °F 16.8 °F 1013.8 in SW 12.9 mph 24.1 mph 74 % 0.0 in
13:22 21.9 °F 17.5 °F 1013.4 in SW 16.1 mph 25.7 mph 76 % 0.0 in
13:27 21.8 °F 16.7 °F 1013.4 in WSW 9.7 mph 25.7 mph 73 % 0.0 in
13:32 21.9 °F 17.1 °F 1013.4 in West 11.3 mph 25.7 mph 74 % 0.0 in
13:37 21.8 °F 16.7 °F 1013.4 in West 20.9 mph 24.1 mph 73 % 0.0 in
13:42 22.0 °F 17.4 °F 1013.4 in WSW 8.0 mph 24.1 mph 75 % 0.0 in
13:47 22.1 °F 17.2 °F 1013.1 in SW 20.9 mph 24.1 mph 74 % 0.0 in
13:52 22.2 °F 17.3 °F 1013.4 in SSW 4.8 mph 22.5 mph 74 % 0.0 in
13:57 22.4 °F 17.5 °F 1013.1 in SSE 4.8 mph 22.5 mph 74 % 0.0 in
14:02 22.6 °F 17.5 °F 1013.1 in West 16.1 mph 20.9 mph 73 % 0.0 in
14:07 22.6 °F 17.5 °F 1013.1 in WSW 20.9 mph 20.9 mph 73 % 0.0 in
14:12 22.2 °F 16.9 °F 1013.1 in West 22.5 mph 32.2 mph 72 % 0.0 in
14:17 22.1 °F 17.0 °F 1013.1 in WSW 8.0 mph 32.2 mph 73 % 0.0 in
14:22 22.1 °F 17.5 °F 1013.1 in West 11.3 mph 32.2 mph 75 % 0.0 in
14:27 22.2 °F 17.3 °F 1013.1 in West 4.8 mph 29.0 mph 74 % 0.0 in
14:32 21.9 °F 17.1 °F 1013.1 in SW 19.3 mph 29.0 mph 74 % 0.0 in
14:37 21.6 °F 17.0 °F 1013.4 in West 16.1 mph 29.0 mph 75 % 0.0 in
14:42 21.6 °F 16.8 °F 1013.1 in WNW 17.7 mph 29.0 mph 74 % 0.0 in
14:47 21.5 °F 16.7 °F 1013.1 in West 12.9 mph 29.0 mph 74 % 0.0 in
14:52 21.6 °F 17.0 °F 1013.1 in SW 11.3 mph 24.1 mph 75 % 0.0 in
14:57 21.8 °F 17.0 °F 1013.4 in SW 12.9 mph 22.5 mph 74 % 0.0 in
15:02 21.7 °F 17.1 °F 1013.4 in WSW 17.7 mph 22.5 mph 75 % 0.0 in
15:12 21.5 °F 16.7 °F 1013.4 in WSW 12.9 mph 22.5 mph 74 % 0.0 in
15:17 21.6 °F 17.0 °F 1013.1 in SW 20.9 mph 25.7 mph 75 % 0.0 in
15:22 21.6 °F 17.2 °F 1012.8 in SW 19.3 mph 25.7 mph 76 % 0.0 in
15:27 21.9 °F 17.3 °F 1012.8 in SW 14.5 mph 25.7 mph 75 % 0.0 in
15:32 22.3 °F 16.8 °F 1012.8 in West 9.7 mph 24.1 mph 71 % 0.0 in
15:42 22.8 °F 16.6 °F 1013.1 in WNW 8.0 mph 27.4 mph 68 % 0.0 in
15:47 22.8 °F 16.8 °F 1013.1 in WSW 16.1 mph 27.4 mph 69 % 0.0 in
15:52 23.1 °F 16.6 °F 1012.8 in WSW 12.9 mph 29.0 mph 67 % 0.0 in
15:57 23.1 °F 16.9 °F 1012.8 in SW 22.5 mph 29.0 mph 68 % 0.0 in
16:02 22.9 °F 16.7 °F 1012.8 in WSW 8.0 mph 29.0 mph 68 % 0.0 in
16:07 22.9 °F 16.2 °F 1012.8 in West 9.7 mph 29.0 mph 66 % 0.0 in
16:12 22.7 °F 16.7 °F 1012.8 in WSW 8.0 mph 29.0 mph 69 % 0.0 in
16:17 22.5 °F 17.0 °F 1012.8 in WSW 12.9 mph 24.1 mph 71 % 0.0 in
16:22 22.3 °F 17.2 °F 1012.8 in West 11.3 mph 20.9 mph 73 % 0.0 in
16:27 22.3 °F 17.2 °F 1012.8 in West 9.7 mph 20.9 mph 73 % 0.0 in
16:32 22.3 °F 17.4 °F 1012.8 in WSW 9.7 mph 20.9 mph 74 % 0.0 in
16:37 22.6 °F 17.5 °F 1012.8 in SW 9.7 mph 20.9 mph 73 % 0.0 in
16:42 22.6 °F 17.3 °F 1012.8 in SW 12.9 mph 20.9 mph 72 % 0.0 in
16:47 22.6 °F 17.3 °F 1012.8 in West 8.0 mph 22.5 mph 72 % 0.0 in
16:52 22.5 °F 17.0 °F 1012.4 in WSW 9.7 mph 22.5 mph 71 % 0.0 in
16:57 22.4 °F 16.9 °F 1012.8 in WSW 17.7 mph 27.4 mph 71 % 0.0 in
17:02 22.2 °F 16.7 °F 1012.8 in WSW 16.1 mph 29.0 mph 71 % 0.0 in
17:07 22.1 °F 16.6 °F 1012.8 in SW 11.3 mph 29.0 mph 71 % 0.0 in
17:12 21.8 °F 17.0 °F 1013.1 in West 20.9 mph 32.2 mph 74 % 0.0 in
17:17 21.2 °F 17.0 °F 1012.8 in West 19.3 mph 32.2 mph 77 % 0.0 in
17:22 20.6 °F 17.2 °F 1012.8 in West 4.8 mph 32.2 mph 81 % 0.0 in
17:32 20.2 °F 17.6 °F 1012.8 in West 9.7 mph 20.9 mph 85 % 0.0 in
17:42 20.7 °F 17.5 °F 1012.8 in West 4.8 mph 22.5 mph 82 % 0.0 in
17:47 20.6 °F 17.2 °F 1012.8 in SW 9.7 mph 22.5 mph 81 % 0.0 in
17:52 20.4 °F 17.0 °F 1012.8 in West 8.0 mph 20.9 mph 81 % 0.0 in
17:57 20.2 °F 17.0 °F 1012.8 in WSW 6.4 mph 20.9 mph 82 % 0.0 in
18:02 20.1 °F 16.7 °F 1013.1 in WSW 3.2 mph 20.9 mph 81 % 0.0 in
18:07 19.9 °F 15.9 °F 1013.1 in West 4.8 mph 20.9 mph 78 % 0.0 in
18:12 19.8 °F 15.7 °F 1013.1 in WSW 11.3 mph 19.3 mph 77 % 0.0 in
18:17 19.7 °F 15.8 °F 1013.1 in SW 9.7 mph 19.3 mph 78 % 0.0 in
18:22 19.4 °F 15.7 °F 1013.4 in SW 8.0 mph 19.3 mph 79 % 0.0 in
18:32 19.0 °F 16.0 °F 1013.4 in West 6.4 mph 22.5 mph 83 % 0.0 in
18:37 18.8 °F 16.2 °F 1013.8 in WNW 6.4 mph 20.9 mph 85 % 0.0 in
18:42 18.6 °F 16.2 °F 1013.8 in WSW 8.0 mph 20.9 mph 86 % 0.0 in
18:47 18.3 °F 16.1 °F 1013.8 in WSW 12.9 mph 16.1 mph 87 % 0.0 in
18:52 18.1 °F 16.1 °F 1013.8 in West 12.9 mph 20.9 mph 88 % 0.3 in
18:57 17.9 °F 16.1 °F 1013.8 in WNW 4.8 mph 20.9 mph 89 % 0.3 in
19:02 17.8 °F 16.1 °F 1013.8 in West 8.0 mph 19.3 mph 90 % 0.3 in
19:12 17.7 °F 16.2 °F 1013.4 in West 9.7 mph 16.1 mph 91 % 0.5 in
19:17 17.7 °F 16.4 °F 1013.4 in WNW 9.7 mph 17.7 mph 92 % 0.5 in
19:22 17.7 °F 16.4 °F 1013.4 in WNW 1.6 mph 17.7 mph 92 % 0.8 in
19:27 17.7 °F 16.6 °F 1013.4 in NW 6.4 mph 17.7 mph 93 % 0.8 in
19:32 17.8 °F 16.7 °F 1013.4 in WNW 3.2 mph 16.1 mph 93 % 0.8 in
19:37 17.8 °F 16.7 °F 1013.4 in NW 1.6 mph 11.3 mph 93 % 0.8 in
19:42 17.9 °F 16.8 °F 1013.8 in Calm   6.4 mph 93 % 0.8 in
19:47 17.9 °F 16.8 °F 1013.8 in WNW 4.8 mph 4.8 mph 93 % 0.5 in
19:52 18.0 °F 16.9 °F 1013.8 in WSW 3.2 mph 4.8 mph 93 % 0.5 in
19:57 18.1 °F 16.8 °F 1013.8 in West 6.4 mph 6.4 mph 92 % 0.5 in
20:02 18.3 °F 17.0 °F 1013.8 in SW 4.8 mph 8.0 mph 92 % 0.5 in
20:07 18.4 °F 16.9 °F 1013.8 in SW 1.6 mph 9.7 mph 91 % 0.5 in
20:17 18.4 °F 16.9 °F 1014.1 in SW 1.6 mph 9.7 mph 91 % 0.0 in
20:22 18.4 °F 16.7 °F 1014.1 in SW 4.8 mph 6.4 mph 90 % 0.0 in
20:27 18.3 °F 16.8 °F 1014.1 in WSW 4.8 mph 11.3 mph 91 % 0.0 in
20:32 18.2 °F 16.7 °F 1014.1 in West 4.8 mph 11.3 mph 91 % 0.0 in
20:42 18.1 °F 16.6 °F 1014.4 in West 4.8 mph 11.3 mph 91 % 0.0 in
20:47 18.2 °F 16.9 °F 1014.4 in WSW 1.6 mph 8.0 mph 92 % 0.0 in
20:52 18.3 °F 16.8 °F 1014.4 in Calm   8.0 mph 91 % 0.0 in
20:57 18.2 °F 16.7 °F 1014.4 in SSW 1.6 mph 8.0 mph 91 % 0.0 in
21:02 18.2 °F 16.7 °F 1014.8 in Calm   8.0 mph 91 % 0.0 in
21:07 18.1 °F 16.8 °F 1014.4 in Calm   8.0 mph 92 % 0.0 in
21:12 18.1 °F 16.8 °F 1014.8 in SW 6.4 mph 8.0 mph 92 % 0.0 in
21:17 18.1 °F 16.8 °F 1014.8 in SW 3.2 mph 6.4 mph 92 % 0.0 in
21:27 18.1 °F 16.8 °F 1014.8 in SW 1.6 mph 6.4 mph 92 % 0.0 in
21:32 18.1 °F 16.8 °F 1015.1 in Calm   3.2 mph 92 % 0.0 in
21:42 18.1 °F 16.9 °F 1015.1 in SSW 3.2 mph 4.8 mph 93 % 0.0 in
21:47 18.0 °F 16.9 °F 1015.1 in SSW 1.6 mph 4.8 mph 93 % 0.0 in
21:52 17.9 °F 16.9 °F 1015.1 in SW 3.2 mph 4.8 mph 94 % 0.0 in
21:57 17.9 °F 16.9 °F 1015.5 in SW 3.2 mph 4.8 mph 94 % 0.0 in
22:02 17.9 °F 16.9 °F 1015.5 in SSW 1.6 mph 4.8 mph 94 % 0.0 in
22:12 17.8 °F 16.8 °F 1015.5 in Calm   3.2 mph 94 % 0.0 in
22:17 17.7 °F 16.7 °F 1015.8 in Calm   3.2 mph 94 % 0.0 in
22:27 17.6 °F 16.6 °F 1015.8 in Calm   3.2 mph 94 % 0.0 in
22:32 17.6 °F 16.8 °F 1015.8 in Calm   4.8 mph 95 % 0.0 in
22:42 17.5 °F 16.7 °F 1015.8 in SSW 3.2 mph 3.2 mph 95 % 0.0 in
22:47 17.5 °F 16.7 °F 1015.8 in SSW 1.6 mph 8.0 mph 95 % 0.0 in
22:52 17.5 °F 16.7 °F 1015.8 in SW 4.8 mph 8.0 mph 95 % 0.0 in
22:57 17.4 °F 16.6 °F 1015.8 in SW 8.0 mph 8.0 mph 95 % 0.0 in
23:02 17.3 °F 16.5 °F 1015.8 in SW 3.2 mph 8.0 mph 95 % 0.0 in
23:12 17.3 °F 16.5 °F 1015.8 in SW 6.4 mph 9.7 mph 95 % 0.0 in
23:17 17.3 °F 16.5 °F 1015.8 in WSW 6.4 mph 11.3 mph 95 % 0.0 in
23:22 17.3 °F 16.5 °F 1015.8 in SW 6.4 mph 11.3 mph 95 % 0.0 in
23:27 17.3 °F 16.5 °F 1015.8 in SSW 3.2 mph 11.3 mph 95 % 0.0 in
23:32 17.3 °F 16.5 °F 1015.8 in SSW 3.2 mph 8.0 mph 95 % 0.0 in
23:42 17.1 °F 16.3 °F 1015.8 in SW 9.7 mph 9.7 mph 95 % 0.0 in
23:47 17.1 °F 16.5 °F 1016.1 in SSW 4.8 mph 9.7 mph 96 % 0.0 in
23:52 17.1 °F 16.3 °F 1016.1 in SSE 3.2 mph 9.7 mph 95 % 0.0 in
23:57 16.8 °F 16.0 °F 1016.1 in SW 3.2 mph 9.7 mph 95 % 0.0 in
Meteo18
Compliments of Weather Underground - 4 mb

Script developed by  Jim McMurry - jmcmurry@mwt.net Adapted for the template by  Wim van der Kuil - Leuven-Template.eu

You find our weather info also at:

European Weather Network

Weather Underground

Equipment we use:

Weather-station
Davis Vue

Weather-program
Meteobridge

Weather-server
Raspberry PI 2 B+

Provider
1 and 1

Davis Vue

Meteobridge

Raspberry PI 2 B+

1 and 1